sensor_id;sensor_type;location;lat;lon;timestamp;temperature;humidity
72202;SHT30;60105;54.956;73.412;2022-07-15T00:01:33;18.85;86.54
72202;SHT30;60105;54.956;73.412;2022-07-15T00:04:00;18.86;86.93
72202;SHT30;60105;54.956;73.412;2022-07-15T00:06:37;18.88;86.54
72202;SHT30;60105;54.956;73.412;2022-07-15T00:09:03;18.88;86.33
72202;SHT30;60105;54.956;73.412;2022-07-15T00:11:29;18.89;86.50
72202;SHT30;60105;54.956;73.412;2022-07-15T00:13:55;18.95;86.41
72202;SHT30;60105;54.956;73.412;2022-07-15T00:16:22;18.96;86.58
72202;SHT30;60105;54.956;73.412;2022-07-15T00:18:48;19.00;86.54
72202;SHT30;60105;54.956;73.412;2022-07-15T00:21:14;19.00;86.24
72202;SHT30;60105;54.956;73.412;2022-07-15T00:23:48;19.05;86.20
72202;SHT30;60105;54.956;73.412;2022-07-15T00:26:14;19.05;86.43
72202;SHT30;60105;54.956;73.412;2022-07-15T00:28:41;19.05;86.48
72202;SHT30;60105;54.956;73.412;2022-07-15T00:31:07;19.10;86.46
72202;SHT30;60105;54.956;73.412;2022-07-15T00:33:33;19.10;86.27
72202;SHT30;60105;54.956;73.412;2022-07-15T00:35:59;19.13;86.56
72202;SHT30;60105;54.956;73.412;2022-07-15T00:38:26;19.20;85.97
72202;SHT30;60105;54.956;73.412;2022-07-15T00:40:52;19.26;85.86
72202;SHT30;60105;54.956;73.412;2022-07-15T00:43:19;19.22;85.97
72202;SHT30;60105;54.956;73.412;2022-07-15T00:45:52;19.31;86.14
72202;SHT30;60105;54.956;73.412;2022-07-15T00:48:24;19.30;85.28
72202;SHT30;60105;54.956;73.412;2022-07-15T00:51:00;19.41;85.17
72202;SHT30;60105;54.956;73.412;2022-07-15T00:53:29;19.50;84.19
72202;SHT30;60105;54.956;73.412;2022-07-15T00:55:59;19.60;83.87
72202;SHT30;60105;54.956;73.412;2022-07-15T00:58:29;19.67;83.64
72202;SHT30;60105;54.956;73.412;2022-07-15T01:00:58;19.70;83.38
72202;SHT30;60105;54.956;73.412;2022-07-15T01:03:31;19.73;83.62
72202;SHT30;60105;54.956;73.412;2022-07-15T01:06:04;19.78;83.36
72202;SHT30;60105;54.956;73.412;2022-07-15T01:08:30;19.84;83.03
72202;SHT30;60105;54.956;73.412;2022-07-15T01:10:57;19.85;81.88
72202;SHT30;60105;54.956;73.412;2022-07-15T01:13:26;19.89;81.99
72202;SHT30;60105;54.956;73.412;2022-07-15T01:15:53;19.99;81.67
72202;SHT30;60105;54.956;73.412;2022-07-15T01:18:21;20.04;81.60
72202;SHT30;60105;54.956;73.412;2022-07-15T01:20:47;20.11;81.08
72202;SHT30;60105;54.956;73.412;2022-07-15T01:23:24;20.18;81.00
72202;SHT30;60105;54.956;73.412;2022-07-15T01:26:06;20.26;80.07
72202;SHT30;60105;54.956;73.412;2022-07-15T01:28:33;20.30;79.72
72202;SHT30;60105;54.956;73.412;2022-07-15T01:31:00;20.36;79.76
72202;SHT30;60105;54.956;73.412;2022-07-15T01:33:29;20.40;79.39
72202;SHT30;60105;54.956;73.412;2022-07-15T01:35:59;20.46;79.65
72202;SHT30;60105;54.956;73.412;2022-07-15T01:38:28;20.52;78.56
72202;SHT30;60105;54.956;73.412;2022-07-15T01:40:59;20.56;78.91
72202;SHT30;60105;54.956;73.412;2022-07-15T01:43:26;20.59;78.26
72202;SHT30;60105;54.956;73.412;2022-07-15T01:45:52;20.64;77.98
72202;SHT30;60105;54.956;73.412;2022-07-15T01:48:32;20.70;77.62
72202;SHT30;60105;54.956;73.412;2022-07-15T01:51:49;20.80;77.11
72202;SHT30;60105;54.956;73.412;2022-07-15T01:54:17;20.81;76.62
72202;SHT30;60105;54.956;73.412;2022-07-15T01:56:43;20.84;76.80
72202;SHT30;60105;54.956;73.412;2022-07-15T01:59:10;20.87;76.34
72202;SHT30;60105;54.956;73.412;2022-07-15T02:01:37;20.83;76.72
72202;SHT30;60105;54.956;73.412;2022-07-15T02:04:09;20.80;76.78
72202;SHT30;60105;54.956;73.412;2022-07-15T02:06:35;20.76;77.08
72202;SHT30;60105;54.956;73.412;2022-07-15T02:09:02;20.80;76.81
72202;SHT30;60105;54.956;73.412;2022-07-15T02:11:32;20.81;76.78
72202;SHT30;60105;54.956;73.412;2022-07-15T02:13:59;20.84;77.07
72202;SHT30;60105;54.956;73.412;2022-07-15T02:16:35;20.94;77.66
72202;SHT30;60105;54.956;73.412;2022-07-15T02:19:05;20.97;76.81
72202;SHT30;60105;54.956;73.412;2022-07-15T02:21:32;21.01;76.63
72202;SHT30;60105;54.956;73.412;2022-07-15T02:24:00;21.07;76.15
72202;SHT30;60105;54.956;73.412;2022-07-15T02:26:26;21.05;75.85
72202;SHT30;60105;54.956;73.412;2022-07-15T02:28:55;21.10;76.10
72202;SHT30;60105;54.956;73.412;2022-07-15T02:31:22;21.14;75.10
72202;SHT30;60105;54.956;73.412;2022-07-15T02:33:49;21.17;75.21
72202;SHT30;60105;54.956;73.412;2022-07-15T02:36:15;21.19;75.46
72202;SHT30;60105;54.956;73.412;2022-07-15T02:38:45;21.24;75.37
72202;SHT30;60105;54.956;73.412;2022-07-15T02:41:12;21.31;75.17
72202;SHT30;60105;54.956;73.412;2022-07-15T02:43:40;21.38;74.90
72202;SHT30;60105;54.956;73.412;2022-07-15T02:46:09;21.46;74.04
72202;SHT30;60105;54.956;73.412;2022-07-15T02:48:37;21.42;74.63
72202;SHT30;60105;54.956;73.412;2022-07-15T02:51:12;21.49;74.56
72202;SHT30;60105;54.956;73.412;2022-07-15T02:53:39;21.58;74.56
72202;SHT30;60105;54.956;73.412;2022-07-15T02:56:09;21.58;73.56
72202;SHT30;60105;54.956;73.412;2022-07-15T02:58:36;21.62;73.45
72202;SHT30;60105;54.956;73.412;2022-07-15T03:01:02;21.62;73.45
72202;SHT30;60105;54.956;73.412;2022-07-15T03:03:35;21.65;74.17
72202;SHT30;60105;54.956;73.412;2022-07-15T03:06:03;21.67;74.11
72202;SHT30;60105;54.956;73.412;2022-07-15T03:08:35;21.78;73.89
72202;SHT30;60105;54.956;73.412;2022-07-15T03:11:01;21.79;73.65
72202;SHT30;60105;54.956;73.412;2022-07-15T03:13:27;21.83;73.27
72202;SHT30;60105;54.956;73.412;2022-07-15T03:15:58;21.90;73.42
72202;SHT30;60105;54.956;73.412;2022-07-15T03:18:25;21.96;73.60
72202;SHT30;60105;54.956;73.412;2022-07-15T03:20:51;21.96;74.23
72202;SHT30;60105;54.956;73.412;2022-07-15T03:23:17;22.03;73.95
72202;SHT30;60105;54.956;73.412;2022-07-15T03:25:44;22.04;73.49
72202;SHT30;60105;54.956;73.412;2022-07-15T03:28:13;22.07;73.33
72202;SHT30;60105;54.956;73.412;2022-07-15T03:30:41;22.11;73.85
72202;SHT30;60105;54.956;73.412;2022-07-15T03:33:08;22.20;73.58
72202;SHT30;60105;54.956;73.412;2022-07-15T03:35:35;22.31;73.68
72202;SHT30;60105;54.956;73.412;2022-07-15T03:38:02;22.38;74.01
72202;SHT30;60105;54.956;73.412;2022-07-15T03:40:29;22.48;73.60
72202;SHT30;60105;54.956;73.412;2022-07-15T03:42:58;22.49;73.46
72202;SHT30;60105;54.956;73.412;2022-07-15T03:45:26;22.64;73.56
72202;SHT30;60105;54.956;73.412;2022-07-15T03:47:52;22.66;73.28
72202;SHT30;60105;54.956;73.412;2022-07-15T03:50:18;22.68;72.87
72202;SHT30;60105;54.956;73.412;2022-07-15T03:52:45;22.69;73.22
72202;SHT30;60105;54.956;73.412;2022-07-15T03:55:12;22.75;72.80
72202;SHT30;60105;54.956;73.412;2022-07-15T03:57:43;22.81;72.74
72202;SHT30;60105;54.956;73.412;2022-07-15T04:00:10;22.85;72.83
72202;SHT30;60105;54.956;73.412;2022-07-15T04:02:42;22.82;72.57
72202;SHT30;60105;54.956;73.412;2022-07-15T04:05:09;22.82;72.69
72202;SHT30;60105;54.956;73.412;2022-07-15T04:07:43;22.94;72.57
72202;SHT30;60105;54.956;73.412;2022-07-15T04:10:12;23.09;72.17
72202;SHT30;60105;54.956;73.412;2022-07-15T04:12:38;23.12;72.07
72202;SHT30;60105;54.956;73.412;2022-07-15T04:15:04;23.22;72.14
72202;SHT30;60105;54.956;73.412;2022-07-15T04:17:31;23.39;71.53
72202;SHT30;60105;54.956;73.412;2022-07-15T04:19:58;23.37;71.59
72202;SHT30;60105;54.956;73.412;2022-07-15T04:22:25;23.43;71.50
72202;SHT30;60105;54.956;73.412;2022-07-15T04:24:56;23.53;71.64
72202;SHT30;60105;54.956;73.412;2022-07-15T04:27:22;23.65;70.89
72202;SHT30;60105;54.956;73.412;2022-07-15T04:29:53;23.81;69.94
72202;SHT30;60105;54.956;73.412;2022-07-15T04:32:19;23.85;69.90
72202;SHT30;60105;54.956;73.412;2022-07-15T04:34:49;23.91;69.84
72202;SHT30;60105;54.956;73.412;2022-07-15T04:37:17;23.94;70.10
72202;SHT30;60105;54.956;73.412;2022-07-15T04:39:57;24.04;69.78
72202;SHT30;60105;54.956;73.412;2022-07-15T04:42:24;24.11;69.40
72202;SHT30;60105;54.956;73.412;2022-07-15T04:44:58;24.18;69.25
72202;SHT30;60105;54.956;73.412;2022-07-15T04:47:24;24.22;68.79
72202;SHT30;60105;54.956;73.412;2022-07-15T04:49:56;24.40;68.20
72202;SHT30;60105;54.956;73.412;2022-07-15T04:52:44;24.23;68.91
72202;SHT30;60105;54.956;73.412;2022-07-15T04:55:16;24.22;68.60
72202;SHT30;60105;54.956;73.412;2022-07-15T04:57:42;24.33;68.91
72202;SHT30;60105;54.956;73.412;2022-07-15T05:00:13;24.33;68.90
72202;SHT30;60105;54.956;73.412;2022-07-15T05:02:39;24.30;69.43
72202;SHT30;60105;54.956;73.412;2022-07-15T05:05:05;24.46;68.48
72202;SHT30;60105;54.956;73.412;2022-07-15T05:07:38;24.37;68.39
72202;SHT30;60105;54.956;73.412;2022-07-15T05:10:08;24.36;68.20
72202;SHT30;60105;54.956;73.412;2022-07-15T05:12:39;24.42;68.96
72202;SHT30;60105;54.956;73.412;2022-07-15T05:15:15;24.40;68.72
72202;SHT30;60105;54.956;73.412;2022-07-15T05:17:44;24.55;67.91
72202;SHT30;60105;54.956;73.412;2022-07-15T05:20:16;24.44;68.21
72202;SHT30;60105;54.956;73.412;2022-07-15T05:22:52;24.46;68.87
72202;SHT30;60105;54.956;73.412;2022-07-15T05:25:19;24.33;68.99
72202;SHT30;60105;54.956;73.412;2022-07-15T05:27:46;24.33;68.90
72202;SHT30;60105;54.956;73.412;2022-07-15T05:30:13;24.36;69.22
72202;SHT30;60105;54.956;73.412;2022-07-15T05:32:41;24.50;68.36
72202;SHT30;60105;54.956;73.412;2022-07-15T05:35:13;24.53;66.47
72202;SHT30;60105;54.956;73.412;2022-07-15T05:37:42;24.35;67.41
72202;SHT30;60105;54.956;73.412;2022-07-15T05:40:11;24.44;67.66
72202;SHT30;60105;54.956;73.412;2022-07-15T05:42:43;24.59;67.13
72202;SHT30;60105;54.956;73.412;2022-07-15T05:45:15;24.73;66.91
72202;SHT30;60105;54.956;73.412;2022-07-15T05:47:49;24.73;66.29
72202;SHT30;60105;54.956;73.412;2022-07-15T05:50:26;24.83;67.21
72202;SHT30;60105;54.956;73.412;2022-07-15T05:52:55;24.81;66.15
72202;SHT30;60105;54.956;73.412;2022-07-15T05:55:22;24.79;66.44
72202;SHT30;60105;54.956;73.412;2022-07-15T05:57:49;24.74;66.35
72202;SHT30;60105;54.956;73.412;2022-07-15T06:00:18;24.69;66.95
72202;SHT30;60105;54.956;73.412;2022-07-15T06:02:46;24.69;67.15
72202;SHT30;60105;54.956;73.412;2022-07-15T06:05:21;24.59;66.39
72202;SHT30;60105;54.956;73.412;2022-07-15T06:07:51;24.53;67.37
72202;SHT30;60105;54.956;73.412;2022-07-15T06:10:22;24.50;67.66
72202;SHT30;60105;54.956;73.412;2022-07-15T06:12:49;24.33;68.51
72202;SHT30;60105;54.956;73.412;2022-07-15T06:15:21;24.13;68.42
72202;SHT30;60105;54.956;73.412;2022-07-15T06:17:49;24.06;68.91
72202;SHT30;60105;54.956;73.412;2022-07-15T06:20:20;24.04;69.27
72202;SHT30;60105;54.956;73.412;2022-07-15T06:22:47;24.13;69.18
72202;SHT30;60105;54.956;73.412;2022-07-15T06:25:13;24.22;69.41
72202;SHT30;60105;54.956;73.412;2022-07-15T06:27:41;24.15;68.68
72202;SHT30;60105;54.956;73.412;2022-07-15T06:30:08;24.22;68.02
72202;SHT30;60105;54.956;73.412;2022-07-15T06:32:35;24.23;67.95
72202;SHT30;60105;54.956;73.412;2022-07-15T06:35:02;24.28;67.48
72202;SHT30;60105;54.956;73.412;2022-07-15T06:37:28;24.32;67.13
72202;SHT30;60105;54.956;73.412;2022-07-15T06:39:55;24.37;66.68
72202;SHT30;60105;54.956;73.412;2022-07-15T06:42:22;24.48;67.08
72202;SHT30;60105;54.956;73.412;2022-07-15T06:44:59;24.53;66.62
72202;SHT30;60105;54.956;73.412;2022-07-15T06:47:30;24.56;66.07
72202;SHT30;60105;54.956;73.412;2022-07-15T06:49:59;24.55;65.20
72202;SHT30;60105;54.956;73.412;2022-07-15T06:52:27;24.52;65.96
72202;SHT30;60105;54.956;73.412;2022-07-15T06:54:54;24.43;65.88
72202;SHT30;60105;54.956;73.412;2022-07-15T06:57:21;24.44;65.17
72202;SHT30;60105;54.956;73.412;2022-07-15T06:59:47;24.48;64.95
72202;SHT30;60105;54.956;73.412;2022-07-15T07:02:13;24.50;65.18
72202;SHT30;60105;54.956;73.412;2022-07-15T07:04:41;24.57;64.27
72202;SHT30;60105;54.956;73.412;2022-07-15T07:07:08;24.87;64.11
72202;SHT30;60105;54.956;73.412;2022-07-15T07:09:34;25.14;64.05
72202;SHT30;60105;54.956;73.412;2022-07-15T07:12:10;25.14;62.78
72202;SHT30;60105;54.956;73.412;2022-07-15T07:14:37;25.03;63.35
72202;SHT30;60105;54.956;73.412;2022-07-15T07:17:03;25.01;63.04
72202;SHT30;60105;54.956;73.412;2022-07-15T07:19:38;24.97;63.98
72202;SHT30;60105;54.956;73.412;2022-07-15T07:22:04;24.97;64.26
72202;SHT30;60105;54.956;73.412;2022-07-15T07:24:30;25.00;64.40
72202;SHT30;60105;54.956;73.412;2022-07-15T07:26:57;25.01;64.27
72202;SHT30;60105;54.956;73.412;2022-07-15T07:29:23;25.06;63.33
72202;SHT30;60105;54.956;73.412;2022-07-15T07:31:50;24.91;63.80
72202;SHT30;60105;54.956;73.412;2022-07-15T07:34:16;24.87;63.67
72202;SHT30;60105;54.956;73.412;2022-07-15T07:36:44;25.08;63.37
72202;SHT30;60105;54.956;73.412;2022-07-15T07:39:11;25.04;63.59
72202;SHT30;60105;54.956;73.412;2022-07-15T07:41:38;24.86;63.31
72202;SHT30;60105;54.956;73.412;2022-07-15T07:44:04;24.91;63.08
72202;SHT30;60105;54.956;73.412;2022-07-15T07:46:33;24.97;63.49
72202;SHT30;60105;54.956;73.412;2022-07-15T07:48:59;24.97;62.79
72202;SHT30;60105;54.956;73.412;2022-07-15T07:51:26;24.94;63.30
72202;SHT30;60105;54.956;73.412;2022-07-15T07:53:52;24.92;63.28
72202;SHT30;60105;54.956;73.412;2022-07-15T07:56:18;24.97;63.80
72202;SHT30;60105;54.956;73.412;2022-07-15T07:58:45;24.81;63.67
72202;SHT30;60105;54.956;73.412;2022-07-15T08:01:11;24.60;63.33
72202;SHT30;60105;54.956;73.412;2022-07-15T08:03:37;24.83;62.49
72202;SHT30;60105;54.956;73.412;2022-07-15T08:06:04;25.06;61.41
72202;SHT30;60105;54.956;73.412;2022-07-15T08:08:30;25.24;60.43
72202;SHT30;60105;54.956;73.412;2022-07-15T08:10:57;25.35;61.84
72202;SHT30;60105;54.956;73.412;2022-07-15T08:13:25;25.27;61.74
72202;SHT30;60105;54.956;73.412;2022-07-15T08:15:53;25.14;61.73
72202;SHT30;60105;54.956;73.412;2022-07-15T08:18:23;25.14;61.84
72202;SHT30;60105;54.956;73.412;2022-07-15T08:20:54;25.18;62.44
72202;SHT30;60105;54.956;73.412;2022-07-15T08:23:20;25.20;60.32
72202;SHT30;60105;54.956;73.412;2022-07-15T08:25:53;25.21;60.31
72202;SHT30;60105;54.956;73.412;2022-07-15T08:28:20;25.31;60.49
72202;SHT30;60105;54.956;73.412;2022-07-15T08:30:47;25.32;59.83
72202;SHT30;60105;54.956;73.412;2022-07-15T08:33:14;25.29;59.41
72202;SHT30;60105;54.956;73.412;2022-07-15T08:35:40;25.29;60.18
72202;SHT30;60105;54.956;73.412;2022-07-15T08:38:08;25.34;56.64
72202;SHT30;60105;54.956;73.412;2022-07-15T08:40:35;25.31;56.16
72202;SHT30;60105;54.956;73.412;2022-07-15T08:43:02;25.38;58.16
72202;SHT30;60105;54.956;73.412;2022-07-15T08:45:34;25.37;56.48
72202;SHT30;60105;54.956;73.412;2022-07-15T08:48:01;25.48;58.05
72202;SHT30;60105;54.956;73.412;2022-07-15T08:50:29;25.68;57.56
72202;SHT30;60105;54.956;73.412;2022-07-15T08:52:57;25.63;56.01
72202;SHT30;60105;54.956;73.412;2022-07-15T08:55:23;25.65;56.30
72202;SHT30;60105;54.956;73.412;2022-07-15T08:57:51;25.72;55.29
72202;SHT30;60105;54.956;73.412;2022-07-15T09:00:22;25.46;54.83
72202;SHT30;60105;54.956;73.412;2022-07-15T09:03:03;25.42;55.45
72202;SHT30;60105;54.956;73.412;2022-07-15T09:05:36;25.59;54.87
72202;SHT30;60105;54.956;73.412;2022-07-15T09:08:08;25.63;54.95
72202;SHT30;60105;54.956;73.412;2022-07-15T09:13:37;25.72;53.54
72202;SHT30;60105;54.956;73.412;2022-07-15T09:16:13;25.66;53.93
72202;SHT30;60105;54.956;73.412;2022-07-15T09:18:52;25.73;54.56
72202;SHT30;60105;54.956;73.412;2022-07-15T09:21:21;25.83;54.10
72202;SHT30;60105;54.956;73.412;2022-07-15T09:23:48;25.69;54.79
72202;SHT30;60105;54.956;73.412;2022-07-15T09:26:32;25.65;54.61
72202;SHT30;60105;54.956;73.412;2022-07-15T09:28:59;25.69;54.48
72202;SHT30;60105;54.956;73.412;2022-07-15T09:31:33;25.76;54.69
72202;SHT30;60105;54.956;73.412;2022-07-15T09:34:22;25.66;55.66
72202;SHT30;60105;54.956;73.412;2022-07-15T09:36:51;25.82;54.51
72202;SHT30;60105;54.956;73.412;2022-07-15T09:39:21;25.93;54.32
72202;SHT30;60105;54.956;73.412;2022-07-15T09:41:48;26.07;53.71
72202;SHT30;60105;54.956;73.412;2022-07-15T09:44:15;26.20;53.48
72202;SHT30;60105;54.956;73.412;2022-07-15T09:46:55;26.26;53.10
72202;SHT30;60105;54.956;73.412;2022-07-15T09:52:03;26.31;53.47
72202;SHT30;60105;54.956;73.412;2022-07-15T09:54:35;26.30;53.61
72202;SHT30;60105;54.956;73.412;2022-07-15T09:57:06;26.28;53.17
72202;SHT30;60105;54.956;73.412;2022-07-15T09:59:33;26.13;52.40
72202;SHT30;60105;54.956;73.412;2022-07-15T10:01:59;26.10;52.59
72202;SHT30;60105;54.956;73.412;2022-07-15T10:04:36;26.24;51.38
72202;SHT30;60105;54.956;73.412;2022-07-15T10:07:04;26.07;51.57
72202;SHT30;60105;54.956;73.412;2022-07-15T10:09:33;26.16;52.74
72202;SHT30;60105;54.956;73.412;2022-07-15T10:12:08;26.24;52.15
72202;SHT30;60105;54.956;73.412;2022-07-15T10:23:10;26.71;50.50
72202;SHT30;60105;54.956;73.412;2022-07-15T10:28:24;26.81;50.14
72202;SHT30;60105;54.956;73.412;2022-07-15T10:36:42;26.96;48.31
72202;SHT30;60105;54.956;73.412;2022-07-15T10:39:21;27.10;48.28
72202;SHT30;60105;54.956;73.412;2022-07-15T10:44:15;27.30;49.11
72202;SHT30;60105;54.956;73.412;2022-07-15T10:46:46;27.33;49.73
72202;SHT30;60105;54.956;73.412;2022-07-15T10:56:45;27.43;47.55
72202;SHT30;60105;54.956;73.412;2022-07-15T10:59:13;27.50;47.39
72202;SHT30;60105;54.956;73.412;2022-07-15T11:01:48;27.49;47.09
72202;SHT30;60105;54.956;73.412;2022-07-15T11:04:21;27.55;46.32
72202;SHT30;60105;54.956;73.412;2022-07-15T11:09:53;27.60;45.32
72202;SHT30;60105;54.956;73.412;2022-07-15T11:15:07;27.81;46.15
72202;SHT30;60105;54.956;73.412;2022-07-15T11:17:47;27.90;45.60
72202;SHT30;60105;54.956;73.412;2022-07-15T11:20:30;28.05;45.34
72202;SHT30;60105;54.956;73.412;2022-07-15T11:22:58;28.02;45.86
72202;SHT30;60105;54.956;73.412;2022-07-15T11:28:15;28.22;48.96
72202;SHT30;60105;54.956;73.412;2022-07-15T11:30:44;28.12;50.30
72202;SHT30;60105;54.956;73.412;2022-07-15T11:33:15;28.01;51.85
72202;SHT30;60105;54.956;73.412;2022-07-15T11:35:53;27.68;51.53
72202;SHT30;60105;54.956;73.412;2022-07-15T11:38:26;27.32;51.90
72202;SHT30;60105;54.956;73.412;2022-07-15T11:40:56;27.00;52.36
72202;SHT30;60105;54.956;73.412;2022-07-15T11:44:08;26.85;52.55
72202;SHT30;60105;54.956;73.412;2022-07-15T11:46:54;27.09;51.98
72202;SHT30;60105;54.956;73.412;2022-07-15T11:49:39;27.43;50.28
72202;SHT30;60105;54.956;73.412;2022-07-15T11:52:23;27.64;51.51
72202;SHT30;60105;54.956;73.412;2022-07-15T11:54:50;27.37;52.54
72202;SHT30;60105;54.956;73.412;2022-07-15T11:57:16;27.23;52.93
72202;SHT30;60105;54.956;73.412;2022-07-15T11:59:55;27.20;52.91
72202;SHT30;60105;54.956;73.412;2022-07-15T12:02:26;27.16;53.82
72202;SHT30;60105;54.956;73.412;2022-07-15T12:05:04;26.89;54.08
72202;SHT30;60105;54.956;73.412;2022-07-15T12:07:47;27.00;54.09
72202;SHT30;60105;54.956;73.412;2022-07-15T12:10:14;27.12;54.88
72202;SHT30;60105;54.956;73.412;2022-07-15T12:13:01;27.15;54.30
72202;SHT30;60105;54.956;73.412;2022-07-15T12:15:32;27.20;54.27
72202;SHT30;60105;54.956;73.412;2022-07-15T12:18:00;27.20;54.09
72202;SHT30;60105;54.956;73.412;2022-07-15T12:20:26;27.07;53.80
72202;SHT30;60105;54.956;73.412;2022-07-15T12:23:25;26.54;55.44
72202;SHT30;60105;54.956;73.412;2022-07-15T12:26:08;26.28;55.74
72202;SHT30;60105;54.956;73.412;2022-07-15T12:28:36;26.03;56.15
72202;SHT30;60105;54.956;73.412;2022-07-15T12:31:12;26.26;56.21
72202;SHT30;60105;54.956;73.412;2022-07-15T12:33:43;26.37;57.22
72202;SHT30;60105;54.956;73.412;2022-07-15T12:36:17;26.37;56.48
72202;SHT30;60105;54.956;73.412;2022-07-15T12:38:45;26.43;56.70
72202;SHT30;60105;54.956;73.412;2022-07-15T12:41:24;26.47;56.64
72202;SHT30;60105;54.956;73.412;2022-07-15T12:43:59;26.34;55.66
72202;SHT30;60105;54.956;73.412;2022-07-15T12:46:53;26.12;56.48
72202;SHT30;60105;54.956;73.412;2022-07-15T12:49:40;26.00;57.36
72202;SHT30;60105;54.956;73.412;2022-07-15T12:52:17;25.94;57.37
72202;SHT30;60105;54.956;73.412;2022-07-15T12:54:49;25.96;57.41
72202;SHT30;60105;54.956;73.412;2022-07-15T12:57:20;26.10;57.58
72202;SHT30;60105;54.956;73.412;2022-07-15T13:00:04;26.14;57.39
72202;SHT30;60105;54.956;73.412;2022-07-15T13:02:31;26.27;57.67
72202;SHT30;60105;54.956;73.412;2022-07-15T13:04:58;26.23;57.50
72202;SHT30;60105;54.956;73.412;2022-07-15T13:07:30;26.20;57.46
72202;SHT30;60105;54.956;73.412;2022-07-15T13:09:56;25.90;58.27
72202;SHT30;60105;54.956;73.412;2022-07-15T13:12:22;25.85;58.29
72202;SHT30;60105;54.956;73.412;2022-07-15T13:14:48;25.72;58.87
72202;SHT30;60105;54.956;73.412;2022-07-15T13:17:25;25.53;59.47
72202;SHT30;60105;54.956;73.412;2022-07-15T13:19:51;25.37;60.07
72202;SHT30;60105;54.956;73.412;2022-07-15T13:22:22;25.24;60.35
72202;SHT30;60105;54.956;73.412;2022-07-15T13:24:56;25.22;60.54
72202;SHT30;60105;54.956;73.412;2022-07-15T13:27:24;25.32;59.95
72202;SHT30;60105;54.956;73.412;2022-07-15T13:29:50;25.27;59.78
72202;SHT30;60105;54.956;73.412;2022-07-15T13:32:26;25.35;60.37
72202;SHT30;60105;54.956;73.412;2022-07-15T13:34:52;25.48;60.10
72202;SHT30;60105;54.956;73.412;2022-07-15T13:37:22;25.48;59.59
72202;SHT30;60105;54.956;73.412;2022-07-15T13:39:49;25.63;59.32
72202;SHT30;60105;54.956;73.412;2022-07-15T13:42:15;25.68;59.30
72202;SHT30;60105;54.956;73.412;2022-07-15T13:44:41;25.82;59.18
72202;SHT30;60105;54.956;73.412;2022-07-15T13:47:07;25.75;59.19
72202;SHT30;60105;54.956;73.412;2022-07-15T13:49:44;25.94;58.39
72202;SHT30;60105;54.956;73.412;2022-07-15T13:52:28;26.57;56.07
72202;SHT30;60105;54.956;73.412;2022-07-15T13:54:55;25.97;56.96
72202;SHT30;60105;54.956;73.412;2022-07-15T13:57:21;27.02;53.91
72202;SHT30;60105;54.956;73.412;2022-07-15T13:59:47;27.30;52.97
72202;SHT30;60105;54.956;73.412;2022-07-15T14:02:17;26.38;55.04
72202;SHT30;60105;54.956;73.412;2022-07-15T14:04:43;26.99;54.04
72202;SHT30;60105;54.956;73.412;2022-07-15T14:07:15;27.50;52.37
72202;SHT30;60105;54.956;73.412;2022-07-15T14:09:52;28.05;51.45
72202;SHT30;60105;54.956;73.412;2022-07-15T14:12:21;28.53;50.04
72202;SHT30;60105;54.956;73.412;2022-07-15T14:14:47;28.74;49.44
72202;SHT30;60105;54.956;73.412;2022-07-15T14:17:24;28.72;49.74
72202;SHT30;60105;54.956;73.412;2022-07-15T14:19:51;28.69;49.95
72202;SHT30;60105;54.956;73.412;2022-07-15T14:22:17;28.11;51.24
72202;SHT30;60105;54.956;73.412;2022-07-15T14:24:43;27.20;53.57
72202;SHT30;60105;54.956;73.412;2022-07-15T14:27:20;26.23;56.35
72202;SHT30;60105;54.956;73.412;2022-07-15T14:29:53;25.66;57.91
72202;SHT30;60105;54.956;73.412;2022-07-15T14:32:20;25.39;58.83
72202;SHT30;60105;54.956;73.412;2022-07-15T14:34:46;25.08;59.62
72202;SHT30;60105;54.956;73.412;2022-07-15T14:37:13;24.91;59.78
72202;SHT30;60105;54.956;73.412;2022-07-15T14:39:47;24.59;60.35
72202;SHT30;60105;54.956;73.412;2022-07-15T14:42:13;24.33;61.05
72202;SHT30;60105;54.956;73.412;2022-07-15T14:44:40;24.13;61.30
72202;SHT30;60105;54.956;73.412;2022-07-15T14:47:10;23.92;62.24
72202;SHT30;60105;54.956;73.412;2022-07-15T14:49:46;23.64;63.11
72202;SHT30;60105;54.956;73.412;2022-07-15T14:52:12;23.57;63.62
72202;SHT30;60105;54.956;73.412;2022-07-15T14:54:45;23.34;64.30
72202;SHT30;60105;54.956;73.412;2022-07-15T14:57:16;23.28;64.28
72202;SHT30;60105;54.956;73.412;2022-07-15T14:59:43;23.20;64.62
72202;SHT30;60105;54.956;73.412;2022-07-15T15:02:14;23.13;64.99
72202;SHT30;60105;54.956;73.412;2022-07-15T15:04:48;23.44;64.18
72202;SHT30;60105;54.956;73.412;2022-07-15T15:07:17;23.54;63.81
72202;SHT30;60105;54.956;73.412;2022-07-15T15:09:43;23.73;63.17
72202;SHT30;60105;54.956;73.412;2022-07-15T15:12:09;23.43;63.66
72202;SHT30;60105;54.956;73.412;2022-07-15T15:14:36;23.23;64.38
72202;SHT30;60105;54.956;73.412;2022-07-15T15:17:08;22.95;65.04
72202;SHT30;60105;54.956;73.412;2022-07-15T15:19:35;22.84;65.37
72202;SHT30;60105;54.956;73.412;2022-07-15T15:22:02;22.66;66.39
72202;SHT30;60105;54.956;73.412;2022-07-15T15:24:30;22.61;66.55
72202;SHT30;60105;54.956;73.412;2022-07-15T15:27:07;22.48;67.17
72202;SHT30;60105;54.956;73.412;2022-07-15T15:29:37;22.33;68.47
72202;SHT30;60105;54.956;73.412;2022-07-15T15:32:04;22.20;68.02
72202;SHT30;60105;54.956;73.412;2022-07-15T15:34:32;22.13;67.96
72202;SHT30;60105;54.956;73.412;2022-07-15T15:36:58;22.07;68.05
72202;SHT30;60105;54.956;73.412;2022-07-15T15:39:24;22.06;68.06
72202;SHT30;60105;54.956;73.412;2022-07-15T15:41:51;21.93;68.73
72202;SHT30;60105;54.956;73.412;2022-07-15T15:44:17;21.86;69.03
72202;SHT30;60105;54.956;73.412;2022-07-15T15:46:43;21.82;69.11
72202;SHT30;60105;54.956;73.412;2022-07-15T15:49:09;21.73;69.35
72202;SHT30;60105;54.956;73.412;2022-07-15T15:51:36;21.65;69.70
72202;SHT30;60105;54.956;73.412;2022-07-15T15:54:06;21.55;69.87
72202;SHT30;60105;54.956;73.412;2022-07-15T15:56:32;21.49;70.42
72202;SHT30;60105;54.956;73.412;2022-07-15T15:58:58;21.46;70.61
72202;SHT30;60105;54.956;73.412;2022-07-15T16:01:25;21.46;71.14
72202;SHT30;60105;54.956;73.412;2022-07-15T16:03:51;21.42;71.21
72202;SHT30;60105;54.956;73.412;2022-07-15T16:06:24;21.37;71.40
72202;SHT30;60105;54.956;73.412;2022-07-15T16:09:00;21.34;71.53
72202;SHT30;60105;54.956;73.412;2022-07-15T16:11:26;21.29;71.68
72202;SHT30;60105;54.956;73.412;2022-07-15T16:13:52;21.19;71.94